createdAt,value
2019-06-26T00:00:07.368Z,21.80
2019-06-26T00:03:11.571Z,22.02
2019-06-26T00:06:14.795Z,18.77
2019-06-26T00:09:18.435Z,18.45
2019-06-26T00:12:21.799Z,23.70
2019-06-26T00:15:24.890Z,18.37
2019-06-26T00:18:28.258Z,17.87
2019-06-26T00:21:31.595Z,18.30
2019-06-26T00:24:34.651Z,17.42
2019-06-26T00:27:37.903Z,20.85
2019-06-26T00:30:41.450Z,17.98
2019-06-26T00:33:44.646Z,21.17
2019-06-26T00:36:48.795Z,19.45
2019-06-26T00:39:51.966Z,24.02
2019-06-26T00:42:55.051Z,19.52
2019-06-26T00:45:58.281Z,19.82
2019-06-26T00:49:01.443Z,20.80
2019-06-26T00:52:05.803Z,22.07
2019-06-26T00:55:08.858Z,19.60
2019-06-26T00:58:12.127Z,22.60
2019-06-26T01:01:15.479Z,19.23
2019-06-26T01:04:22.911Z,22.70
2019-06-26T01:07:26.088Z,20.12
2019-06-26T01:10:29.131Z,17.65
2019-06-26T01:13:32.430Z,19.48
2019-06-26T01:16:35.763Z,18.05
2019-06-26T01:19:38.926Z,15.83
2019-06-26T01:22:43.142Z,16.73
2019-06-26T01:25:46.339Z,19.60
2019-06-26T01:28:49.535Z,17.30
2019-06-26T01:31:52.659Z,17.77
2019-06-26T01:34:55.927Z,25.48
2019-06-26T01:37:59.032Z,18.67
2019-06-26T01:41:03.811Z,16.77
2019-06-26T01:44:14.767Z,19.40
2019-06-26T01:47:11.983Z,23.12
2019-06-26T01:50:15.280Z,21.27
2019-06-26T01:53:18.271Z,21.50
2019-06-26T01:56:21.498Z,18.80
2019-06-26T01:59:24.671Z,20.25
2019-06-26T02:02:27.757Z,22.42
2019-06-26T02:05:31.034Z,16.85
2019-06-26T02:08:34.254Z,16.55
2019-06-26T02:11:38.580Z,21.15
2019-06-26T02:14:43.532Z,17.75
2019-06-26T02:17:46.599Z,23.02
2019-06-26T02:20:49.688Z,21.60
2019-06-26T02:23:53.076Z,19.02
2019-06-26T02:26:56.411Z,20.90
2019-06-26T02:29:59.435Z,19.77
2019-06-26T02:33:02.591Z,26.97
2019-06-26T02:36:05.865Z,32.78
2019-06-26T02:39:09.167Z,16.65
2019-06-26T02:42:12.376Z,19.12
2019-06-26T02:45:15.659Z,22.17
2019-06-26T02:48:19.047Z,22.77
2019-06-26T02:51:22.351Z,17.25
2019-06-26T02:54:25.456Z,21.05
2019-06-26T02:57:28.544Z,20.85
2019-06-26T03:00:31.741Z,22.95
2019-06-26T03:03:34.934Z,24.67
2019-06-26T03:06:38.049Z,25.15
2019-06-26T03:09:41.323Z,21.07
2019-06-26T03:12:44.638Z,19.27
2019-06-26T03:15:50.538Z,24.20
2019-06-26T03:18:52.752Z,21.93
2019-06-26T03:21:55.975Z,24.20
2019-06-26T03:24:59.147Z,21.90
2019-06-26T03:28:03.393Z,24.43
2019-06-26T03:31:06.657Z,21.85
2019-06-26T03:34:10.109Z,22.42
2019-06-26T03:37:13.188Z,21.65
2019-06-26T03:40:17.291Z,24.87
2019-06-26T03:43:20.392Z,22.17
2019-06-26T03:46:23.659Z,22.93
2019-06-26T03:49:26.987Z,20.77
2019-06-26T03:52:30.292Z,20.82
2019-06-26T03:55:33.354Z,23.77
2019-06-26T03:58:36.577Z,22.02
2019-06-26T04:01:39.720Z,21.37
2019-06-26T04:04:44.573Z,24.18
2019-06-26T04:07:47.706Z,26.25
2019-06-26T04:10:50.854Z,25.57
2019-06-26T04:13:54.183Z,25.75
2019-06-26T04:16:57.347Z,20.82
2019-06-26T04:20:00.438Z,26.87
2019-06-26T04:23:03.570Z,27.52
2019-06-26T04:26:06.625Z,31.68
2019-06-26T04:29:09.856Z,23.70
2019-06-26T04:32:12.949Z,29.30
2019-06-26T04:35:17.819Z,22.60
2019-06-26T04:38:20.970Z,20.62
2019-06-26T04:41:24.138Z,22.93
2019-06-26T04:44:28.846Z,20.43
2019-06-26T04:47:31.898Z,21.73
2019-06-26T04:50:35.158Z,26.60
2019-06-26T04:53:38.382Z,29.35
2019-06-26T04:56:41.618Z,32.67
2019-06-26T04:59:44.846Z,21.05
2019-06-26T05:02:49.431Z,26.20
2019-06-26T05:05:52.694Z,21.33
2019-06-26T05:08:55.866Z,25.35
2019-06-26T05:11:58.957Z,20.82
2019-06-26T05:15:01.746Z,22.17
2019-06-26T05:18:04.724Z,23.12
2019-06-26T05:21:07.623Z,24.95
2019-06-26T05:24:10.435Z,22.90
2019-06-26T05:27:13.186Z,22.65
2019-06-26T05:30:16.716Z,24.77
2019-06-26T05:33:24.834Z,23.85
2019-06-26T05:36:27.636Z,25.30
2019-06-26T05:39:31.488Z,28.52
2019-06-26T05:42:34.379Z,33.35
2019-06-26T05:45:37.149Z,27.00
2019-06-26T05:48:39.895Z,31.68
2019-06-26T05:51:42.774Z,22.48
2019-06-26T05:54:45.559Z,25.30
2019-06-26T05:57:48.665Z,26.65
2019-06-26T06:00:51.578Z,20.50
2019-06-26T06:03:54.323Z,22.17
2019-06-26T06:06:57.074Z,19.50
2019-06-26T06:10:00.964Z,25.90
2019-06-26T06:13:03.822Z,19.85
2019-06-26T06:16:26.139Z,22.32
2019-06-26T06:19:28.914Z,20.12
2019-06-26T06:22:31.683Z,22.65
2019-06-26T06:25:34.462Z,18.35
2019-06-26T06:28:37.270Z,19.57
2019-06-26T06:31:40.039Z,20.37
2019-06-26T06:34:42.823Z,20.90
2019-06-26T06:37:45.603Z,19.12
2019-06-26T06:40:48.351Z,19.07
2019-06-26T06:43:51.174Z,18.60
2019-06-26T06:47:03.225Z,20.48
2019-06-26T06:49:58.490Z,18.87
2019-06-26T06:53:01.311Z,20.70
2019-06-26T06:56:04.353Z,20.48
2019-06-26T06:59:07.222Z,17.52
2019-06-26T07:02:10.030Z,18.42
2019-06-26T07:05:12.882Z,16.95
2019-06-26T07:08:15.750Z,19.92
2019-06-26T07:11:18.603Z,17.70
2019-06-26T07:14:21.468Z,18.02
2019-06-26T07:17:24.272Z,16.35
2019-06-26T07:20:27.188Z,19.23
2019-06-26T07:23:29.916Z,17.12
2019-06-26T07:26:32.662Z,15.78
2019-06-26T07:29:35.456Z,15.30
2019-06-26T07:32:38.239Z,14.40
2019-06-26T07:35:42.243Z,14.93
2019-06-26T07:38:45.040Z,24.98
2019-06-26T07:41:47.906Z,11.38
2019-06-26T07:44:50.683Z,16.32
2019-06-26T07:47:53.459Z,13.45
2019-06-26T07:50:56.446Z,14.25
2019-06-26T07:53:59.327Z,12.50
2019-06-26T07:57:02.091Z,11.48
2019-06-26T08:00:05.867Z,9.73
2019-06-26T08:03:09.157Z,14.90
2019-06-26T08:06:12.001Z,8.73
2019-06-26T08:09:14.732Z,10.08
2019-06-26T08:12:17.506Z,10.65
2019-06-26T08:15:20.390Z,15.18
2019-06-26T08:18:23.143Z,12.47
2019-06-26T08:21:25.936Z,10.10
2019-06-26T08:24:29.799Z,7.25
2019-06-26T08:27:32.577Z,12.75
2019-06-26T08:30:36.469Z,12.33
2019-06-26T08:33:39.361Z,8.20
2019-06-26T08:36:42.103Z,8.73
2019-06-26T08:39:44.888Z,11.05
2019-06-26T08:42:47.750Z,8.40
2019-06-26T08:45:50.511Z,12.75
2019-06-26T08:48:53.300Z,8.55
2019-06-26T08:51:56.378Z,6.03
2019-06-26T08:54:59.131Z,6.70
2019-06-26T08:58:01.988Z,8.45
2019-06-26T09:01:04.857Z,7.78
2019-06-26T09:04:07.744Z,7.53
2019-06-26T09:07:10.630Z,5.95
2019-06-26T09:10:13.805Z,7.75
2019-06-26T09:13:16.622Z,10.80
2019-06-26T09:16:19.347Z,5.40
2019-06-26T09:19:22.136Z,6.17
2019-06-26T09:22:24.907Z,6.35
2019-06-26T09:25:27.775Z,10.95
2019-06-26T09:28:30.503Z,6.58
2019-06-26T09:31:33.360Z,6.47
2019-06-26T09:34:36.147Z,6.80
2019-06-26T09:37:39.362Z,8.20
2019-06-26T09:40:42.187Z,7.90
2019-06-26T09:43:44.977Z,7.53
2019-06-26T09:46:47.949Z,9.15
2019-06-26T09:49:50.809Z,6.67
2019-06-26T09:52:57.399Z,7.17
2019-06-26T09:56:01.803Z,4.08
2019-06-26T09:59:06.082Z,10.08
2019-06-26T10:02:09.604Z,3.60
2019-06-26T10:05:15.779Z,3.72
2019-06-26T10:08:19.444Z,5.00
2019-06-26T10:11:23.468Z,5.90
2019-06-26T10:14:45.505Z,6.25
2019-06-26T10:17:34.434Z,5.97
2019-06-26T10:20:39.022Z,5.45
2019-06-26T10:23:43.323Z,10.63
2019-06-26T10:26:47.667Z,11.93
2019-06-26T10:29:51.164Z,6.28
2019-06-26T10:32:54.506Z,7.03
2019-06-26T10:35:57.722Z,5.53
2019-06-26T10:39:01.283Z,4.15
2019-06-26T10:42:06.582Z,6.75
2019-06-26T10:45:12.189Z,8.50
2019-06-26T10:48:15.818Z,7.10
2019-06-26T10:51:19.233Z,3.98
2019-06-26T10:54:23.280Z,5.03
2019-06-26T10:57:26.958Z,4.72
2019-06-26T11:00:33.399Z,3.80
2019-06-26T11:03:36.829Z,7.90
2019-06-26T11:06:40.528Z,7.17
2019-06-26T11:09:43.491Z,6.03
2019-06-26T11:12:48.931Z,3.77
2019-06-26T11:15:51.074Z,5.05
2019-06-26T11:18:54.930Z,7.60
2019-06-26T11:21:58.602Z,5.00
2019-06-26T11:25:01.733Z,5.80
2019-06-26T11:28:04.600Z,6.40
2019-06-26T11:31:07.451Z,4.25
2019-06-26T11:34:10.367Z,6.20
2019-06-26T11:37:13.094Z,7.15
2019-06-26T11:40:16.466Z,7.50
2019-06-26T11:43:20.340Z,9.68
2019-06-26T11:46:23.183Z,6.92
2019-06-26T11:49:26.003Z,5.28
2019-06-26T11:52:29.219Z,8.73
2019-06-26T11:55:34.018Z,7.67
2019-06-26T11:58:36.899Z,11.35
2019-06-26T12:01:40.036Z,7.08
2019-06-26T12:04:43.258Z,6.33
2019-06-26T12:07:46.092Z,10.18
2019-06-26T12:10:48.875Z,7.97
2019-06-26T12:13:53.641Z,8.30
2019-06-26T12:16:57.447Z,10.03
2019-06-26T12:20:16.959Z,15.93
2019-06-26T12:23:06.945Z,9.78
2019-06-26T12:26:12.447Z,10.55
2019-06-26T12:29:18.859Z,9.98
2019-06-26T12:32:23.358Z,6.22
2019-06-26T12:35:26.175Z,9.20
2019-06-26T12:38:29.634Z,13.03
2019-06-26T12:41:32.816Z,6.83
2019-06-26T12:44:35.970Z,9.38
2019-06-26T12:47:39.016Z,10.88
2019-06-26T12:50:42.110Z,9.65
2019-06-26T12:53:45.042Z,9.50
2019-06-26T12:56:47.874Z,10.75
2019-06-26T12:59:57.291Z,12.90
2019-06-26T13:02:56.458Z,10.53
2019-06-26T13:05:59.340Z,8.53
2019-06-26T13:09:04.359Z,10.03
2019-06-26T13:12:07.363Z,8.35
2019-06-26T13:15:10.383Z,7.75
2019-06-26T13:18:13.155Z,10.93
2019-06-26T13:21:15.958Z,8.25
2019-06-26T13:24:18.779Z,16.77
2019-06-26T13:27:21.503Z,7.53
2019-06-26T13:30:34.530Z,13.35
2019-06-26T13:33:37.442Z,8.50
2019-06-26T13:36:40.339Z,9.75
2019-06-26T13:39:43.203Z,10.50
2019-06-26T13:42:46.060Z,11.10
2019-06-26T13:45:49.387Z,10.45
2019-06-26T13:48:52.985Z,7.20
2019-06-26T13:51:56.393Z,9.30
2019-06-26T13:54:59.769Z,13.10
2019-06-26T13:58:03.300Z,7.70
2019-06-26T14:01:07.477Z,13.62
2019-06-26T14:04:10.770Z,7.50
2019-06-26T14:07:14.247Z,12.78
2019-06-26T14:10:17.742Z,7.75
2019-06-26T14:13:20.877Z,9.23
2019-06-26T14:16:24.071Z,9.38
2019-06-26T14:19:27.389Z,7.95
2019-06-26T14:22:30.535Z,6.53
2019-06-26T14:25:33.966Z,8.48
2019-06-26T14:28:37.286Z,8.28
2019-06-26T14:31:40.135Z,10.43
2019-06-26T14:34:43.328Z,7.75
2019-06-26T14:37:46.546Z,6.42
2019-06-26T14:40:50.687Z,6.47
2019-06-26T14:43:53.746Z,11.43
2019-06-26T14:46:56.843Z,12.98
2019-06-26T14:49:59.837Z,13.68
2019-06-26T14:53:04.672Z,13.20
2019-06-26T14:56:07.815Z,11.28
2019-06-26T14:59:12.567Z,9.18
2019-06-26T15:02:15.689Z,6.62
2019-06-26T15:05:18.986Z,9.18
2019-06-26T15:08:22.079Z,10.75
2019-06-26T15:11:27.273Z,9.83
2019-06-26T15:14:30.407Z,9.38
2019-06-26T15:17:33.511Z,8.00
2019-06-26T15:20:36.803Z,10.03
2019-06-26T15:23:40.819Z,7.35
2019-06-26T15:26:44.007Z,8.68
2019-06-26T15:29:48.747Z,11.50
2019-06-26T15:32:51.948Z,9.40
2019-06-26T15:35:55.131Z,10.72
2019-06-26T15:38:59.242Z,10.78
2019-06-26T15:42:04.251Z,13.53
2019-06-26T15:45:07.668Z,7.80
2019-06-26T15:48:10.783Z,10.38
2019-06-26T15:51:14.023Z,13.62
2019-06-26T15:54:17.171Z,11.93
2019-06-26T15:57:20.396Z,10.90
2019-06-26T16:00:23.768Z,13.62
2019-06-26T16:03:28.151Z,7.78
2019-06-26T16:06:31.415Z,12.13
2019-06-26T16:09:35.598Z,9.63
2019-06-26T16:12:38.681Z,15.88
2019-06-26T16:15:41.724Z,13.18
2019-06-26T16:18:52.544Z,12.10
2019-06-26T16:21:55.811Z,10.03
2019-06-26T16:24:58.960Z,10.72
2019-06-26T16:28:05.693Z,5.60
2019-06-26T16:31:07.092Z,10.18
2019-06-26T16:34:12.208Z,10.08
2019-06-26T16:37:15.347Z,4.55
2019-06-26T16:40:18.532Z,22.80
2019-06-26T16:43:21.639Z,10.32
2019-06-26T16:46:25.006Z,14.53
2019-06-26T16:49:29.223Z,10.98
2019-06-26T16:52:47.829Z,7.22
2019-06-26T16:55:39.201Z,6.15
2019-06-26T16:58:42.232Z,8.35
2019-06-26T17:01:45.300Z,8.53
2019-06-26T17:04:48.591Z,8.25
2019-06-26T17:07:53.608Z,10.35
2019-06-26T17:10:59.998Z,5.78
2019-06-26T17:14:03.323Z,11.35
2019-06-26T17:17:07.271Z,4.85
2019-06-26T17:20:11.288Z,9.05
2019-06-26T17:23:14.374Z,5.55
2019-06-26T17:26:18.580Z,4.40
2019-06-26T17:29:21.650Z,4.03
2019-06-26T17:32:24.889Z,3.67
2019-06-26T17:35:28.039Z,6.85
2019-06-26T17:38:31.494Z,8.90
2019-06-26T17:41:34.843Z,8.60
2019-06-26T17:44:38.183Z,4.62
2019-06-26T17:47:42.383Z,8.58
2019-06-26T17:50:45.657Z,8.18
2019-06-26T17:53:49.598Z,5.05
2019-06-26T17:56:52.670Z,7.50
2019-06-26T17:59:56.063Z,8.43
2019-06-26T18:02:59.387Z,7.00
2019-06-26T18:06:02.759Z,9.20
2019-06-26T18:09:09.958Z,4.28
2019-06-26T18:12:13.448Z,6.28
2019-06-26T18:15:16.667Z,17.23
2019-06-26T18:18:19.769Z,7.97
2019-06-26T18:21:22.935Z,5.47
2019-06-26T18:24:26.335Z,11.25
2019-06-26T18:27:29.637Z,6.33
2019-06-26T18:30:32.967Z,10.40
2019-06-26T18:33:37.358Z,13.10
2019-06-26T18:36:40.655Z,8.28
2019-06-26T18:39:44.039Z,6.90
2019-06-26T18:42:47.177Z,5.97
2019-06-26T18:45:51.837Z,5.40
2019-06-26T18:48:55.082Z,4.62
2019-06-26T18:51:58.263Z,10.20
2019-06-26T18:55:02.702Z,6.03
2019-06-26T18:58:06.031Z,10.75
2019-06-26T19:01:09.286Z,7.35
2019-06-26T19:04:12.583Z,5.03
2019-06-26T19:07:15.672Z,14.25
2019-06-26T19:10:18.975Z,9.03
2019-06-26T19:13:22.067Z,7.65
2019-06-26T19:16:25.359Z,7.28
2019-06-26T19:19:28.683Z,8.20
2019-06-26T19:22:31.994Z,12.75
2019-06-26T19:25:35.314Z,7.28
2019-06-26T19:28:38.403Z,6.90
2019-06-26T19:31:41.452Z,8.23
2019-06-26T19:34:44.563Z,6.60
2019-06-26T19:37:47.981Z,7.90
2019-06-26T19:40:51.304Z,5.17
2019-06-26T19:43:55.892Z,9.58
2019-06-26T19:46:59.667Z,6.92
2019-06-26T19:50:03.754Z,12.33
2019-06-26T19:53:07.658Z,6.75
2019-06-26T19:56:12.759Z,6.62
2019-06-26T19:59:16.674Z,11.12
2019-06-26T20:02:20.072Z,10.55
2019-06-26T20:05:23.935Z,5.45
2019-06-26T20:08:27.915Z,7.92
2019-06-26T20:11:31.587Z,7.67
2019-06-26T20:14:35.589Z,10.60
2019-06-26T20:17:39.254Z,7.35
2019-06-26T20:20:42.974Z,10.05
2019-06-26T20:23:46.650Z,7.10
2019-06-26T20:26:50.319Z,4.97
2019-06-26T20:29:54.098Z,7.53
2019-06-26T20:32:57.800Z,13.40
2019-06-26T20:36:02.679Z,5.50
2019-06-26T20:39:07.861Z,6.47
2019-06-26T20:42:11.672Z,5.33
2019-06-26T20:45:17.828Z,6.60
2019-06-26T20:48:23.051Z,5.97
2019-06-26T20:51:26.723Z,6.58
2019-06-26T20:54:30.198Z,8.55
2019-06-26T20:57:34.190Z,7.22
2019-06-26T21:00:38.310Z,12.90
2019-06-26T21:03:41.938Z,12.37
2019-06-26T21:06:46.941Z,8.80
2019-06-26T21:09:50.879Z,8.93
2019-06-26T21:12:55.143Z,10.38
2019-06-26T21:15:58.362Z,9.18
2019-06-26T21:19:02.368Z,11.90
2019-06-26T21:22:08.894Z,8.98
2019-06-26T21:25:19.173Z,11.88
2019-06-26T21:28:16.078Z,3.77
2019-06-26T21:31:22.191Z,7.35
2019-06-26T21:35:33.152Z,5.87
2019-06-26T21:38:36.685Z,10.15
2019-06-26T21:41:40.503Z,5.97
2019-06-26T21:44:44.233Z,6.72
2019-06-26T21:47:48.101Z,6.72
2019-06-26T21:50:51.883Z,5.62
2019-06-26T21:53:56.600Z,6.15
2019-06-26T21:57:18.995Z,8.95
2019-06-26T22:00:41.438Z,4.00
2019-06-26T22:04:04.220Z,5.25
2019-06-26T22:07:12.284Z,11.05
2019-06-26T22:10:29.778Z,6.10
2019-06-26T22:13:33.735Z,3.67
2019-06-26T22:16:37.323Z,3.70
2019-06-26T22:19:40.843Z,4.72
2019-06-26T22:22:46.421Z,4.08
2019-06-26T22:25:51.257Z,3.72
2019-06-26T22:28:55.255Z,4.28
2019-06-26T22:31:58.936Z,3.87
2019-06-26T22:35:02.347Z,5.55
2019-06-26T22:38:05.844Z,7.90
2019-06-26T22:41:09.899Z,5.55
2019-06-26T22:44:13.252Z,7.03
2019-06-26T22:47:18.279Z,2.65
2019-06-26T22:50:22.640Z,3.25
2019-06-26T22:53:26.013Z,7.35
2019-06-26T22:56:29.203Z,4.62
2019-06-26T22:59:32.536Z,3.92
2019-06-26T23:02:35.523Z,4.90
2019-06-26T23:05:40.399Z,6.78
2019-06-26T23:08:44.948Z,3.67
2019-06-26T23:11:49.763Z,10.43
2019-06-26T23:14:52.686Z,9.80
2019-06-26T23:17:56.124Z,6.92
2019-06-26T23:21:01.150Z,10.53
2019-06-26T23:24:04.288Z,10.78
2019-06-26T23:27:07.438Z,11.90
2019-06-26T23:30:16.529Z,8.23
2019-06-26T23:38:12.110Z,13.40
2019-06-26T23:41:27.449Z,12.55
2019-06-26T23:44:30.742Z,10.38
2019-06-26T23:47:34.561Z,13.78
2019-06-26T23:50:37.825Z,9.93
2019-06-26T23:53:41.053Z,7.25
2019-06-26T23:56:44.370Z,13.28
2019-06-26T23:59:47.646Z,12.68
